Terminal Aerodrome Forecast
Issued by NWS

Home | Current Version | Previous Version | Graphics & Text | Print | Product List | Glossary On
Versions: 1 2 3 4 5 6 7 8 9 10 11 12 13 14 15 16 17 18 19 20
342
FTUS43 KGRB 271942 AAA
TAFMTW
TAF AMD
KMTW 271942Z 2720/2818 13008KT P6SM VCSH SCT050 OVC070
      TEMPO 2720/2721 2SM SHRA BR BKN050 OVC070
     FM280100 15006KT 6SM BR VCSH BKN020 OVC035
      TEMPO 2801/2805 2SM -SHRA BR OVC020
     FM280500 15005KT 3SM BR VCSH OVC015
     FM281500 16010KT P6SM VCSH BKN030=

USA.gov is the U.S. government's official web portal to all federal, state and local government web resources and services.